Dades meteomassalio
Diari Summary for Gener 21, 2018 Units:  Metric    English   Both
« Previous Day
Next Day »
Diari Semanal Mensual Anual Personalitzat
  Maxima: Minima: Mijana:
Temperatura: -17.8 °C -10.7 °C -9.6 °C
Rosada: -17.8 °C -14.6 °C -13.2 °C
Humitat: Humidity % 58 % 65 %
Velocitat del vent: 0 km/h 35.7 km/h 64.1 km/h
Racha vent: 0 km/h - -
Vent:- - NW
Pressio: 0 hPa 34682.8 hPa -
Pluja: 0 mm    
Historical Graphs
 
 
Tabular Data for Gener 21, 2018
Time Temperature Dew Point Pressure Wind Wind Speed Wind Gust Humidity Rainfall Rate (Hourly) solar Conditions
-17.8 °C -17.8 °C 0 hPa Calm     Humidity % 0 mm SolarRadiationWatts/m^2 W/m2 Conditions
00:01 -10.1 °C -14.6 °C 34703.1 hPa NNW 51.8 km/h 51.8 km/h 58 % 0 mm 0.0 W/m2 CLR
00:06 -10.1 °C -14.4 °C 34703.1 hPa North 47.6 km/h 47.6 km/h 59 % 0 mm 0.0 W/m2 CLR
00:11 -10.1 °C -14.4 °C 34703.1 hPa WNW 53.6 km/h 53.6 km/h 59 % 0 mm 0.0 W/m2 CLR
00:16 -9.8 °C -14.3 °C 34703.1 hPa North 38.8 km/h 38.8 km/h 58 % 0 mm 0.0 W/m2 CLR
00:21 -9.8 °C -14.3 °C 34703.1 hPa NW 77.4 km/h 77.4 km/h 58 % 0 mm 0.0 W/m2 CLR
00:26 -9.8 °C -14.2 °C 34703.1 hPa NW 65.5 km/h 65.5 km/h 59 % 0 mm 0.0 W/m2 CLR
00:31 -9.8 °C -14.3 °C 34693 hPa NW 59.5 km/h 59.5 km/h 58 % 0 mm 0.0 W/m2 CLR
00:36 -10.1 °C -14.6 °C 34703.1 hPa NNW 47.6 km/h 47.6 km/h 58 % 0 mm 0.0 W/m2 CLR
00:41 -10.1 °C -14.4 °C 34693 hPa NNE 65.5 km/h 65.5 km/h 59 % 0 mm 0.0 W/m2 CLR
00:46 -10.1 °C -14.4 °C 34693 hPa NW 50.7 km/h 50.7 km/h 59 % 0 mm 0.0 W/m2 CLR
00:51 -10.1 °C -14.3 °C 34693 hPa NW 41.7 km/h 41.7 km/h 60 % 0 mm 0.0 W/m2 CLR
00:56 -10.1 °C -14.3 °C 34693 hPa NNW 41.7 km/h 41.7 km/h 60 % 0 mm 0.0 W/m2 CLR
01:01 -10.1 °C -14.3 °C 34693 hPa NNW 47.6 km/h 47.6 km/h 60 % 0 mm 0.0 W/m2 CLR
01:06 -10.4 °C -14.5 °C 34693 hPa NW 65.5 km/h 65.5 km/h 61 % 0 mm 0.0 W/m2 CLR
01:11 -10.4 °C -14.5 °C 34693 hPa NW 50.7 km/h 50.7 km/h 61 % 0 mm 0.0 W/m2 CLR
01:16 -10.4 °C -14.5 °C 34693 hPa NNW 54.4 km/h 54.4 km/h 61 % 0 mm 0.0 W/m2 CLR
01:21 -10.1 °C -14.2 °C 34693 hPa NW 57 km/h 57 km/h 61 % 0 mm 0.0 W/m2 CLR
01:26 -10.1 °C -14.2 °C 34682.8 hPa NNW 59.5 km/h 59.5 km/h 61 % 0 mm 0.0 W/m2 CLR
01:31 -10.4 °C -14.5 °C 34682.8 hPa NW 68.6 km/h 68.6 km/h 61 % 0 mm 0.0 W/m2 CLR
01:36 -10.4 °C -14.5 °C 34693 hPa NW 65.5 km/h 65.5 km/h 61 % 0 mm 0.0 W/m2 CLR
01:41 -10.4 °C -14.5 °C 34693 hPa NW 68.6 km/h 68.6 km/h 61 % 0 mm 0.0 W/m2 CLR
01:46 -10.4 °C -14.5 °C 34693 hPa NNW 51.8 km/h 51.8 km/h 61 % 0 mm 0.0 W/m2 CLR
01:51 -10.4 °C -14.3 °C 34693 hPa NNW 59.5 km/h 59.5 km/h 62 % 0 mm 0.0 W/m2 CLR
01:56 -10.4 °C -14.5 °C 34693 hPa NNW 62.6 km/h 62.6 km/h 61 % 0 mm 0.0 W/m2 CLR
02:01 -10.4 °C -14.3 °C 34693 hPa NW 56.6 km/h 56.6 km/h 62 % 0 mm 0.0 W/m2 CLR
02:06 -10.4 °C -14.3 °C 34693 hPa NNW 62.6 km/h 62.6 km/h 62 % 0 mm 0.0 W/m2 CLR
02:11 -10.4 °C -14.3 °C 34693 hPa NNW 64.7 km/h 64.7 km/h 62 % 0 mm 0.0 W/m2 CLR
02:16 -10.4 °C -14.3 °C 34693 hPa NW 50.7 km/h 50.7 km/h 62 % 0 mm 0.0 W/m2 CLR
02:21 -10.4 °C -14.3 °C 34693 hPa NNW 56.6 km/h 56.6 km/h 62 % 0 mm 0.0 W/m2 CLR
02:26 -10.4 °C -14.3 °C 34693 hPa NW 53.6 km/h 53.6 km/h 62 % 0 mm 0.0 W/m2 CLR
02:31 -10.4 °C -14.5 °C 34693 hPa NW 53.6 km/h 53.6 km/h 61 % 0 mm 0.0 W/m2 CLR
02:37 -10.1 °C -14.1 °C 34693 hPa NNW 51.8 km/h 51.8 km/h 62 % 0 mm 0.0 W/m2 CLR
02:42 -10.1 °C -14.2 °C 34693 hPa NW 50.7 km/h 50.7 km/h 61 % 0 mm 0.0 W/m2 CLR
02:47 -10.1 °C -14.1 °C 34693 hPa NW 64.7 km/h 64.7 km/h 62 % 0 mm 0.0 W/m2 CLR
02:52 -10.1 °C -14.2 °C 34693 hPa WNW 47.6 km/h 47.6 km/h 61 % 0 mm 0.0 W/m2 CLR
02:56 -10.1 °C -14.2 °C 34693 hPa NW 53.6 km/h 53.6 km/h 61 % 0 mm 0.0 W/m2 CLR
03:01 -10.4 °C -14.5 °C 34693 hPa NNW 69.8 km/h 69.8 km/h 61 % 0 mm 0.0 W/m2 CLR
03:06 -10.1 °C -14.2 °C 34693 hPa NW 62.6 km/h 62.6 km/h 61 % 0 mm 0.0 W/m2 CLR
03:11 -10.1 °C -14.2 °C 34693 hPa NW 56.6 km/h 56.6 km/h 61 % 0 mm 0.0 W/m2 CLR
03:17 -10.1 °C -14.2 °C 34703.1 hPa NW 50.7 km/h 50.7 km/h 61 % 0 mm 0.0 W/m2 CLR
03:22 -10.1 °C -14.1 °C 34703.1 hPa NNW 50.7 km/h 50.7 km/h 62 % 0 mm 0.0 W/m2 CLR
03:27 -10.4 °C -14.3 °C 34703.1 hPa WNW 41.7 km/h 41.7 km/h 62 % 0 mm 0.0 W/m2 CLR
03:32 -10.1 °C -14.1 °C 34703.1 hPa WNW 47.6 km/h 47.6 km/h 62 % 0 mm 0.0 W/m2 CLR
03:37 -10.4 °C -14.3 °C 34703.1 hPa NNW 47.6 km/h 47.6 km/h 62 % 0 mm 0.0 W/m2 CLR
03:42 -10.4 °C -14.3 °C 34703.1 hPa NNW 50.7 km/h 50.7 km/h 62 % 0 mm 0.0 W/m2 CLR
03:47 -10.4 °C -14.3 °C 34703.1 hPa NNW 59.5 km/h 59.5 km/h 62 % 0 mm 0.0 W/m2 CLR
03:52 -10.1 °C -13.9 °C 34703.1 hPa North 65.5 km/h 65.5 km/h 63 % 0 mm 0.0 W/m2 CLR
03:57 -10.1 °C -13.9 °C 34703.1 hPa NW 83.4 km/h 83.4 km/h 63 % 0 mm 0.0 W/m2 CLR
04:02 -10.1 °C -13.9 °C 34716.7 hPa NW 71.5 km/h 71.5 km/h 63 % 0 mm 0.0 W/m2 CLR
04:07 -10.1 °C -13.9 °C 34716.7 hPa NW 68.6 km/h 68.6 km/h 63 % 0 mm 0.0 W/m2 CLR
04:12 -10.1 °C -13.9 °C 34716.7 hPa NW 68.6 km/h 68.6 km/h 63 % 0 mm 0.0 W/m2 CLR
04:17 -10.1 °C -13.9 °C 34716.7 hPa NW 50.7 km/h 50.7 km/h 63 % 0 mm 0.0 W/m2 CLR
04:22 -10.1 °C -13.9 °C 34716.7 hPa NNW 65.5 km/h 65.5 km/h 63 % 0 mm 0.0 W/m2 CLR
04:27 -10.1 °C -13.9 °C 34716.7 hPa NW 51.8 km/h 51.8 km/h 63 % 0 mm 0.0 W/m2 CLR
04:32 -10.1 °C -13.8 °C 34716.7 hPa NNW 68.6 km/h 68.6 km/h 64 % 0 mm 0.0 W/m2 CLR
04:37 -10.1 °C -13.8 °C 34726.8 hPa WNW 50.7 km/h 50.7 km/h 64 % 0 mm 0.0 W/m2 CLR
04:42 -10.1 °C -13.8 °C 34716.7 hPa NW 53.6 km/h 53.6 km/h 64 % 0 mm 0.0 W/m2 CLR
04:47 -10.1 °C -13.8 °C 34716.7 hPa NW 51.8 km/h 51.8 km/h 64 % 0 mm 0.0 W/m2 CLR
04:52 -10.1 °C -13.8 °C 34716.7 hPa NW 77.4 km/h 77.4 km/h 64 % 0 mm 0.0 W/m2 CLR
04:57 -10.1 °C -13.8 °C 34716.7 hPa WNW 56.6 km/h 56.6 km/h 64 % 0 mm 0.0 W/m2 CLR
05:02 -10.1 °C -13.8 °C 34716.7 hPa NW 68.6 km/h 68.6 km/h 64 % 0 mm 0.0 W/m2 CLR
05:07 -10.1 °C -13.8 °C 34716.7 hPa NNW 53.6 km/h 53.6 km/h 64 % 0 mm 0.0 W/m2 CLR
05:12 -10.1 °C -13.7 °C 34716.7 hPa NNW 50.7 km/h 50.7 km/h 65 % 0 mm 0.0 W/m2 CLR
05:17 -10.1 °C -13.7 °C 34716.7 hPa NNW 68.6 km/h 68.6 km/h 65 % 0 mm 0.0 W/m2 CLR
05:22 -10.1 °C -13.7 °C 34716.7 hPa NW 65.5 km/h 65.5 km/h 65 % 0 mm 0.0 W/m2 CLR
05:27 -10.1 °C -13.7 °C 34716.7 hPa NW 49.2 km/h 49.2 km/h 65 % 0 mm 0.0 W/m2 CLR
05:32 -10.1 °C -13.7 °C 34716.7 hPa NW 50.7 km/h 50.7 km/h 65 % 0 mm 0.0 W/m2 CLR
05:37 -10.1 °C -13.7 °C 34716.7 hPa NW 67.3 km/h 67.3 km/h 65 % 0 mm 0.0 W/m2 CLR
05:42 -10.1 °C -13.7 °C 34716.7 hPa NW 67.3 km/h 67.3 km/h 65 % 0 mm 0.0 W/m2 CLR
05:47 -10.4 °C -13.9 °C 34716.7 hPa NW 68.6 km/h 68.6 km/h 65 % 0 mm 0.0 W/m2 CLR
05:52 -10.1 °C -13.7 °C 34726.8 hPa NW 65.5 km/h 65.5 km/h 65 % 0 mm 0.0 W/m2 CLR
05:57 -10.1 °C -13.6 °C 34726.8 hPa NW 62.6 km/h 62.6 km/h 66 % 0 mm 0.0 W/m2 CLR
06:02 -10.1 °C -13.6 °C 34716.7 hPa NW 68.6 km/h 68.6 km/h 66 % 0 mm 0.0 W/m2 CLR
06:07 -10.4 °C -13.8 °C 34716.7 hPa NW 68.6 km/h 68.6 km/h 66 % 0 mm 0.0 W/m2 CLR
06:12 -10.4 °C -13.7 °C 34716.7 hPa NW 62.6 km/h 62.6 km/h 67 % 0 mm 0.0 W/m2 CLR
06:17 -10.4 °C -13.7 °C 34716.7 hPa NW 56.6 km/h 56.6 km/h 67 % 0 mm 0.0 W/m2 CLR
06:22 -10.1 °C -13.4 °C 34716.7 hPa NNW 59.5 km/h 59.5 km/h 67 % 0 mm 0.0 W/m2 CLR
06:27 -10.1 °C -13.4 °C 34726.8 hPa NW 74.5 km/h 74.5 km/h 67 % 0 mm 0.0 W/m2 CLR
06:32 -10.1 °C -13.4 °C 34716.7 hPa NNW 71.5 km/h 71.5 km/h 67 % 0 mm 0.0 W/m2 CLR
06:37 -10.1 °C -13.4 °C 34726.8 hPa NNW 77.4 km/h 77.4 km/h 67 % 0 mm 0.0 W/m2 CLR
06:41 -10.4 °C -13.7 °C 34716.7 hPa NNW 74.5 km/h 74.5 km/h 67 % 0 mm 0.0 W/m2 CLR
06:46 -10.4 °C -13.7 °C 34726.8 hPa NW 68.6 km/h 68.6 km/h 67 % 0 mm 0.0 W/m2 CLR
06:51 -10.1 °C -13.4 °C 34726.8 hPa NNW 68.6 km/h 68.6 km/h 67 % 0 mm 0.0 W/m2 CLR
06:56 -10.4 °C -13.7 °C 34726.8 hPa NNW 86.4 km/h 86.4 km/h 67 % 0 mm 0.0 W/m2 CLR
07:01 -10.4 °C -13.8 °C 34726.8 hPa NW 65.5 km/h 65.5 km/h 66 % 0 mm 0.0 W/m2 CLR
07:06 -10.4 °C -13.7 °C 34726.8 hPa NW 65.5 km/h 65.5 km/h 67 % 0 mm 0.0 W/m2 CLR
07:21 -10.4 °C -13.8 °C 34726.8 hPa NW 62.6 km/h 62.6 km/h 66 % 0 mm 0.0 W/m2 CLR
07:26 -10.1 °C -13.6 °C 34740.4 hPa NW 68.6 km/h 68.6 km/h 66 % 0 mm 0.0 W/m2 CLR
07:31 -10.1 °C -13.6 °C 34740.4 hPa North 62.6 km/h 62.6 km/h 66 % 0 mm 0.0 W/m2 CLR
07:41 -10.1 °C -13.6 °C 34750.5 hPa NW 50.7 km/h 50.7 km/h 66 % 0 mm 0.0 W/m2 CLR
07:46 -10.1 °C -13.6 °C 34750.5 hPa WNW 51.8 km/h 51.8 km/h 66 % 0 mm 0.0 W/m2 CLR
07:51 -10.1 °C -13.7 °C 34760.7 hPa NW 53.6 km/h 53.6 km/h 65 % 0 mm 0.0 W/m2 CLR
07:56 -10.1 °C -13.7 °C 34760.7 hPa NW 47.6 km/h 47.6 km/h 65 % 0 mm 0.0 W/m2 CLR
08:01 -10.1 °C -13.6 °C 34760.7 hPa WNW 50.7 km/h 50.7 km/h 66 % 0 mm 0.0 W/m2 CLR
08:11 -10.1 °C -13.6 °C 34774.2 hPa NW 44.7 km/h 44.7 km/h 66 % 0 mm 0.0 W/m2 OVC
08:16 -10.4 °C -13.8 °C 34774.2 hPa NW 47.6 km/h 47.6 km/h 66 % 0 mm 0.0 W/m2 OVC
08:21 -10.4 °C -13.8 °C 34774.2 hPa NW 50.7 km/h 50.7 km/h 66 % 0 mm 0.0 W/m2 OVC
08:26 -10.4 °C -13.8 °C 34774.2 hPa NW 38.8 km/h 38.8 km/h 66 % 0 mm 0.0 W/m2 OVC
08:31 -10.4 °C -13.8 °C 34774.2 hPa NW 38.8 km/h 38.8 km/h 66 % 0 mm 5.0 W/m2 OVC
08:36 -10.7 °C -14 °C 34774.2 hPa NW 50.7 km/h 50.7 km/h 67 % 0 mm 5.0 W/m2 OVC
08:46 -10.4 °C -13.7 °C 34774.2 hPa NW 50.7 km/h 50.7 km/h 67 % 0 mm 9.0 W/m2 BKN
08:51 -10.4 °C -13.7 °C 34774.2 hPa NW 41.7 km/h 41.7 km/h 67 % 0 mm 11.0 W/m2 BKN
08:56 -10.4 °C -13.7 °C 34774.2 hPa NW 50.7 km/h 50.7 km/h 67 % 0 mm 12.0 W/m2 BKN
09:06 -10.4 °C -13.7 °C 34774.2 hPa NW 53.6 km/h 53.6 km/h 67 % 0 mm 14.0 W/m2 BKN
09:11 -10.4 °C -13.6 °C 34774.2 hPa NW 47.6 km/h 47.6 km/h 68 % 0 mm 18.0 W/m2 BKN
09:16 -10.4 °C -13.6 °C 34774.2 hPa NNW 41.4 km/h 42.2 km/h 68 % 0 mm 18.0 W/m2 BKN
09:21 -10.4 °C -13.6 °C 34774.2 hPa NNW 47.6 km/h 47.6 km/h 68 % 0 mm 19.0 W/m2 BKN
09:26 -10.4 °C -13.6 °C 34774.2 hPa NNW 59.5 km/h 59.5 km/h 68 % 0 mm 21.0 W/m2 BKN
09:32 -10.4 °C -13.6 °C 34760.7 hPa NNW 50.7 km/h 50.7 km/h 68 % 0 mm 21.0 W/m2 BKN
09:37 -10.4 °C -13.6 °C 34774.2 hPa NW 68.6 km/h 68.6 km/h 68 % 0 mm 25.0 W/m2 BKN
09:42 -10.4 °C -13.6 °C 34774.2 hPa NW 50.7 km/h 50.7 km/h 68 % 0 mm 26.0 W/m2 BKN
09:47 -10.4 °C -13.6 °C 34774.2 hPa NNW 50.7 km/h 50.7 km/h 68 % 0 mm 28.0 W/m2 BKN
09:52 -10.4 °C -13.7 °C 34774.2 hPa NW 50.7 km/h 50.7 km/h 67 % 0 mm 30.0 W/m2 BKN
09:57 -10.4 °C -13.7 °C 34784.4 hPa NW 68.6 km/h 68.6 km/h 67 % 0 mm 35.0 W/m2 BKN
10:02 -10.1 °C -13.4 °C 34784.4 hPa WNW 53.6 km/h 53.6 km/h 67 % 0 mm 39.0 W/m2 BKN
10:07 -10.4 °C -13.7 °C 34784.4 hPa WNW 56.6 km/h 56.6 km/h 67 % 0 mm 42.0 W/m2 BKN
10:12 -10.1 °C -13.4 °C 34784.4 hPa NW 62.6 km/h 62.6 km/h 67 % 0 mm 44.0 W/m2 BKN
10:17 -10.4 °C -13.6 °C 34784.4 hPa WNW 35.7 km/h 35.7 km/h 68 % 0 mm 54.0 W/m2 SCT
10:22 -10.1 °C -13.3 °C 34784.4 hPa NNW 71.5 km/h 71.5 km/h 68 % 0 mm 67.0 W/m2 SCT
10:27 -10.1 °C -13.3 °C 34784.4 hPa NW 50.7 km/h 50.7 km/h 68 % 0 mm 74.0 W/m2 SCT
10:32 -10.1 °C -13.3 °C 34784.4 hPa NW 59.5 km/h 59.5 km/h 68 % 0 mm 72.0 W/m2 FEW
10:37 -10.1 °C -13.3 °C 34784.4 hPa NW 65.5 km/h 65.5 km/h 68 % 0 mm 83.0 W/m2 FEW
10:42 -10.1 °C -13.3 °C 34784.4 hPa NNW 62.6 km/h 62.6 km/h 68 % 0 mm 83.0 W/m2 FEW
10:47 -10.1 °C -13.3 °C 34784.4 hPa NNW 56.6 km/h 56.6 km/h 68 % 0 mm 111.0 W/m2 CLR
10:52 -10.1 °C -13.3 °C 34784.4 hPa NNW 57 km/h 57 km/h 68 % 0 mm 221.0 W/m2 CLR
10:57 -9.8 °C -13.1 °C 34784.4 hPa North 77.4 km/h 77.4 km/h 67 % 0 mm 220.0 W/m2 CLR
11:02 -9.4 °C -12.8 °C 34774.2 hPa North 62.6 km/h 62.6 km/h 67 % 0 mm 353.0 W/m2 CLR
11:07 -9.4 °C -12.9 °C 34784.4 hPa NNW 89.3 km/h 89.3 km/h 66 % 0 mm 343.0 W/m2 CLR
11:12 -9.1 °C -12.7 °C 34784.4 hPa NNW 89.3 km/h 89.3 km/h 66 % 0 mm 329.0 W/m2 CLR
11:17 -9.1 °C -12.8 °C 34797.9 hPa NNW 74.5 km/h 74.5 km/h 65 % 0 mm 369.0 W/m2 CLR
11:22 -9.1 °C -12.8 °C 34797.9 hPa NW 89.3 km/h 89.3 km/h 65 % 0 mm 345.0 W/m2 CLR
11:27 -9.1 °C -12.8 °C 34797.9 hPa North 77.4 km/h 77.4 km/h 65 % 0 mm 413.0 W/m2 CLR
11:32 -8.8 °C -12.6 °C 34784.4 hPa NNW 83.4 km/h 83.4 km/h 64 % 0 mm 417.0 W/m2 CLR
11:37 -8.8 °C -12.7 °C 34784.4 hPa North 89.3 km/h 89.3 km/h 63 % 0 mm 418.0 W/m2 CLR
11:42 -8.8 °C -12.7 °C 34784.4 hPa NNW 98.3 km/h 98.3 km/h 63 % 0 mm 420.0 W/m2 CLR
11:47 -8.8 °C -12.7 °C 34784.4 hPa NNW 89.3 km/h 89.3 km/h 63 % 0 mm 404.0 W/m2 CLR
11:52 -8.8 °C -12.7 °C 34784.4 hPa NW 77.4 km/h 77.4 km/h 63 % 0 mm 432.0 W/m2 CLR
11:57 -8.8 °C -12.9 °C 34774.2 hPa NNW 83.4 km/h 83.4 km/h 62 % 0 mm 439.0 W/m2 CLR
12:02 -8.5 °C -12.6 °C 34774.2 hPa NNW 98.3 km/h 98.3 km/h 62 % 0 mm 443.0 W/m2 CLR
12:07 -8.5 °C -12.4 °C 34774.2 hPa North 80.5 km/h 80.5 km/h 63 % 0 mm 450.0 W/m2 CLR
12:12 -8.5 °C -12.4 °C 34760.7 hPa NW 95.3 km/h 95.3 km/h 63 % 0 mm 454.0 W/m2 CLR
12:17 -8.5 °C -12.6 °C 34774.2 hPa NW 83.4 km/h 83.4 km/h 62 % 0 mm 461.0 W/m2 CLR
12:22 -8.5 °C -12.6 °C 34774.2 hPa NNW 68.6 km/h 68.6 km/h 62 % 0 mm 459.0 W/m2 CLR
12:27 -8.5 °C -12.6 °C 34774.2 hPa North 77.4 km/h 77.4 km/h 62 % 0 mm 457.0 W/m2 CLR
12:32 -8.2 °C -12.3 °C 34774.2 hPa North 65.5 km/h 65.5 km/h 62 % 0 mm 468.0 W/m2 CLR
12:37 -8.2 °C -12.4 °C 34774.2 hPa NNW 68.6 km/h 68.6 km/h 61 % 0 mm 448.0 W/m2 CLR
12:42 -8.2 °C -12.4 °C 34760.7 hPa NW 62.6 km/h 62.6 km/h 61 % 0 mm 478.0 W/m2 CLR
12:47 -8.2 °C -12.6 °C 34750.5 hPa NNW 89.3 km/h 89.3 km/h 60 % 0 mm 485.0 W/m2 CLR
12:52 -7.9 °C -12.3 °C 34760.7 hPa North 110.2 km/h 110.2 km/h 60 % 0 mm 489.0 W/m2 CLR
12:57 -7.9 °C -12.1 °C 34750.5 hPa NW 86.4 km/h 86.4 km/h 61 % 0 mm 490.0 W/m2 CLR
13:02 -7.9 °C -12.3 °C 34750.5 hPa North 89.3 km/h 89.3 km/h 60 % 0 mm 490.0 W/m2 CLR
13:07 -7.9 °C -12.3 °C 34750.5 hPa NNW 72.6 km/h 72.6 km/h 60 % 0 mm 427.0 W/m2 CLR
13:12 -7.9 °C -12.3 °C 34750.5 hPa North 80.5 km/h 80.5 km/h 60 % 0 mm 366.0 W/m2 CLR
13:17 -7.9 °C -12.1 °C 34750.5 hPa NW 68.6 km/h 68.6 km/h 61 % 0 mm 381.0 W/m2 CLR
13:22 -7.9 °C -12.1 °C 34750.5 hPa NNE 68.6 km/h 68.6 km/h 61 % 0 mm 485.0 W/m2 CLR
13:27 -7.6 °C -12.1 °C 34740.4 hPa NW 92.4 km/h 92.4 km/h 59 % 0 mm 478.0 W/m2 CLR
13:32 -7.9 °C -12.3 °C 34726.8 hPa North 98.3 km/h 98.3 km/h 60 % 0 mm 476.0 W/m2 CLR
13:37 -7.9 °C -12.3 °C 34726.8 hPa North 98.3 km/h 98.3 km/h 60 % 0 mm 471.0 W/m2 CLR
13:42 -7.9 °C -12.3 °C 34726.8 hPa NNE 93.2 km/h 93.2 km/h 60 % 0 mm 471.0 W/m2 CLR
13:47 -7.9 °C -12.3 °C 34726.8 hPa NNW 95.3 km/h 95.3 km/h 60 % 0 mm 468.0 W/m2 CLR
13:52 -7.9 °C -12.3 °C 34726.8 hPa NW 89.3 km/h 89.3 km/h 60 % 0 mm 468.0 W/m2 CLR
13:57 -7.9 °C -12.3 °C 34726.8 hPa NNE 101.2 km/h 101.2 km/h 60 % 0 mm 462.0 W/m2 CLR
14:02 -7.9 °C -12.3 °C 34716.7 hPa NNW 77.4 km/h 77.4 km/h 60 % 0 mm 457.0 W/m2 CLR
14:07 -7.9 °C -12.3 °C 34716.7 hPa North 68.6 km/h 68.6 km/h 60 % 0 mm 454.0 W/m2 CLR
14:12 -7.6 °C -12 °C 34716.7 hPa North 88 km/h 88 km/h 60 % 0 mm 452.0 W/m2 CLR
14:17 -7.9 °C -12.3 °C 34703.1 hPa North 89.3 km/h 89.3 km/h 60 % 0 mm 446.0 W/m2 CLR
14:22 -7.6 °C -12.1 °C 34703.1 hPa NNW 80.5 km/h 80.5 km/h 59 % 0 mm 441.0 W/m2 CLR
14:27 -7.6 °C -12 °C 34703.1 hPa North 107.2 km/h 107.2 km/h 60 % 0 mm 436.0 W/m2 CLR
14:32 -7.9 °C -12.3 °C 34716.7 hPa NW 65.5 km/h 65.5 km/h 60 % 0 mm 431.0 W/m2 CLR
14:37 -7.6 °C -12 °C 34726.8 hPa North 83.4 km/h 83.4 km/h 60 % 0 mm 431.0 W/m2 CLR
14:42 -7.9 °C -12.3 °C 34726.8 hPa NNW 41.7 km/h 41.7 km/h 60 % 0 mm 427.0 W/m2 CLR
14:47 -7.6 °C -12 °C 34740.4 hPa North 74.5 km/h 74.5 km/h 60 % 0 mm 420.0 W/m2 CLR
14:52 -7.6 °C -12 °C 34726.8 hPa NW 50.7 km/h 50.7 km/h 60 % 0 mm 411.0 W/m2 CLR
14:57 -7.6 °C -11.8 °C 34726.8 hPa NNW 47.6 km/h 47.6 km/h 61 % 0 mm 399.0 W/m2 CLR
15:02 -7.6 °C -11.8 °C 34726.8 hPa NW 62.6 km/h 62.6 km/h 61 % 0 mm 387.0 W/m2 CLR
15:07 -7.6 °C -12 °C 34726.8 hPa NNW 77.4 km/h 77.4 km/h 60 % 0 mm 381.0 W/m2 CLR
15:12 -7.6 °C -11.8 °C 34740.4 hPa North 71.5 km/h 71.5 km/h 61 % 0 mm 373.0 W/m2 CLR
15:17 -7.9 °C -12.1 °C 34740.4 hPa NNW 59.5 km/h 59.5 km/h 61 % 0 mm 366.0 W/m2 CLR
15:22 -7.9 °C -12.1 °C 34750.5 hPa NNW 65.5 km/h 65.5 km/h 61 % 0 mm 357.0 W/m2 CLR
15:27 -7.6 °C -11.8 °C 34750.5 hPa NNW 65.5 km/h 65.5 km/h 61 % 0 mm 345.0 W/m2 CLR
15:32 -7.6 °C -11.8 °C 34740.4 hPa North 57 km/h 57 km/h 61 % 0 mm 338.0 W/m2 CLR
15:37 -7.9 °C -12.1 °C 34750.5 hPa North 53.6 km/h 53.6 km/h 61 % 0 mm 327.0 W/m2 CLR
15:42 -7.9 °C -12 °C 34750.5 hPa North 59.5 km/h 59.5 km/h 62 % 0 mm 316.0 W/m2 CLR
15:47 -7.9 °C -12 °C 34750.5 hPa North 68.6 km/h 68.6 km/h 62 % 0 mm 302.0 W/m2 CLR
15:52 -7.6 °C -11.8 °C 34750.5 hPa NNW 75.2 km/h 75.2 km/h 61 % 0 mm 301.0 W/m2 CLR
15:57 -7.9 °C -12.1 °C 34750.5 hPa NNW 71.5 km/h 71.5 km/h 61 % 0 mm 292.0 W/m2 CLR
16:02 -7.9 °C -12 °C 34750.5 hPa NW 86.4 km/h 86.4 km/h 62 % 0 mm 292.0 W/m2 CLR
16:07 -7.9 °C -12 °C 34750.5 hPa NNW 68.6 km/h 68.6 km/h 62 % 0 mm 265.0 W/m2 CLR
16:13 -7.9 °C -12 °C 34750.5 hPa NW 64.7 km/h 64.7 km/h 62 % 0 mm 65.0 W/m2 CLR
16:18 -8.2 °C -12.2 °C 34750.5 hPa NNW 74.5 km/h 74.5 km/h 63 % 0 mm 116.0 W/m2 CLR
16:23 -8.2 °C -12.2 °C 34750.5 hPa NNW 71.5 km/h 71.5 km/h 63 % 0 mm 211.0 W/m2 FEW
16:28 -8.2 °C -12.2 °C 34750.5 hPa North 62.6 km/h 62.6 km/h 63 % 0 mm 197.0 W/m2 CLR
16:33 -8.2 °C -12.2 °C 34750.5 hPa NW 71.5 km/h 71.5 km/h 63 % 0 mm 181.0 W/m2 CLR
16:38 -8.2 °C -12.2 °C 34750.5 hPa NNW 80.5 km/h 80.5 km/h 63 % 0 mm 172.0 W/m2 CLR
16:43 -8.2 °C -12.2 °C 34750.5 hPa NNW 77.4 km/h 77.4 km/h 63 % 0 mm 160.0 W/m2 CLR
16:48 -8.5 °C -12.3 °C 34760.7 hPa NNW 68.6 km/h 68.6 km/h 64 % 0 mm 146.0 W/m2 CLR
16:53 -8.5 °C -12.3 °C 34760.7 hPa North 85.5 km/h 85.5 km/h 64 % 0 mm 128.0 W/m2 CLR
16:58 -8.5 °C -12.2 °C 34760.7 hPa NNW 53.6 km/h 53.6 km/h 65 % 0 mm 118.0 W/m2 CLR
17:03 -8.5 °C -12.2 °C 34760.7 hPa NNW 72.6 km/h 72.6 km/h 65 % 0 mm 98.0 W/m2 CLR
17:08 -8.5 °C -12.2 °C 34760.7 hPa NW 47.6 km/h 47.6 km/h 65 % 0 mm 90.0 W/m2 CLR
17:13 -8.8 °C -12.5 °C 34760.7 hPa NNW 71.5 km/h 71.5 km/h 65 % 0 mm 74.0 W/m2 FEW
17:18 -8.8 °C -12.3 °C 34760.7 hPa North 80.5 km/h 80.5 km/h 66 % 0 mm 62.0 W/m2 SCT
17:23 -8.8 °C -12.3 °C 34760.7 hPa NNW 77.4 km/h 77.4 km/h 66 % 0 mm 47.0 W/m2 SCT
17:28 -8.8 °C -12.2 °C 34750.5 hPa NNW 77.4 km/h 77.4 km/h 67 % 0 mm 35.0 W/m2 BKN
17:33 -9.1 °C -12.7 °C 34760.7 hPa North 89.3 km/h 89.3 km/h 66 % 0 mm 25.0 W/m2 BKN
17:38 -9.1 °C -12.6 °C 34760.7 hPa NNW 67.3 km/h 67.3 km/h 67 % 0 mm 16.0 W/m2 BKN
17:43 -9.1 °C -12.6 °C 34760.7 hPa North 83.4 km/h 83.4 km/h 67 % 0 mm 12.0 W/m2 BKN
17:48 -9.1 °C -12.6 °C 34760.7 hPa NNW 74.5 km/h 74.5 km/h 67 % 0 mm 11.0 W/m2 BKN
17:53 -9.1 °C -12.4 °C 34760.7 hPa North 68.6 km/h 68.6 km/h 68 % 0 mm 9.0 W/m2 BKN
17:58 -9.4 °C -12.7 °C 34760.7 hPa NNW 59.5 km/h 59.5 km/h 68 % 0 mm 7.0 W/m2 BKN
18:03 -9.4 °C -12.7 °C 34774.2 hPa North 65.5 km/h 65.5 km/h 68 % 0 mm 5.0 W/m2 OVC
18:08 -9.4 °C -12.7 °C 34774.2 hPa NNW 68.6 km/h 68.6 km/h 68 % 0 mm 0.0 W/m2 OVC
18:13 -9.4 °C -12.6 °C 34774.2 hPa NNW 65.5 km/h 65.5 km/h 69 % 0 mm 0.0 W/m2 CLR
18:18 -9.4 °C -12.6 °C 34774.2 hPa NW 62.6 km/h 62.6 km/h 69 % 0 mm 0.0 W/m2 CLR
18:23 -9.4 °C -12.6 °C 34774.2 hPa NNW 68.6 km/h 68.6 km/h 69 % 0 mm 0.0 W/m2 CLR
18:28 -9.4 °C -12.6 °C 34774.2 hPa North 89.3 km/h 89.3 km/h 69 % 0 mm 0.0 W/m2 CLR
18:33 -9.4 °C -12.6 °C 34774.2 hPa North 71.5 km/h 71.5 km/h 69 % 0 mm 0.0 W/m2 CLR
18:38 -9.4 °C -12.6 °C 34784.4 hPa NNW 71.5 km/h 71.5 km/h 69 % 0 mm 0.0 W/m2 CLR
18:43 -9.4 °C -12.6 °C 34784.4 hPa NW 50.7 km/h 50.7 km/h 69 % 0 mm 0.0 W/m2 CLR
18:48 -9.4 °C -12.6 °C 34784.4 hPa NW 50.7 km/h 50.7 km/h 69 % 0 mm 0.0 W/m2 CLR
18:53 -9.8 °C -12.9 °C 34784.4 hPa NW 68.6 km/h 68.6 km/h 69 % 0 mm 0.0 W/m2 CLR
18:58 -9.8 °C -12.9 °C 34797.9 hPa NW 54.4 km/h 54.4 km/h 69 % 0 mm 0.0 W/m2 CLR
19:03 -9.8 °C -12.9 °C 34797.9 hPa NW 50.7 km/h 50.7 km/h 69 % 0 mm 0.0 W/m2 CLR
19:08 -9.8 °C -12.7 °C 34797.9 hPa NW 50.7 km/h 50.7 km/h 70 % 0 mm 0.0 W/m2 CLR
19:13 -9.8 °C -12.7 °C 34808.1 hPa NW 74.5 km/h 74.5 km/h 70 % 0 mm 0.0 W/m2 CLR
19:18 -9.8 °C -12.7 °C 34797.9 hPa NW 80.5 km/h 80.5 km/h 70 % 0 mm 0.0 W/m2 CLR
19:23 -9.8 °C -12.7 °C 34808.1 hPa NW 74.5 km/h 74.5 km/h 70 % 0 mm 0.0 W/m2 CLR
19:28 -9.8 °C -12.7 °C 34808.1 hPa NW 65.5 km/h 65.5 km/h 70 % 0 mm 0.0 W/m2 CLR
19:33 -9.8 °C -12.7 °C 34808.1 hPa NNW 59.5 km/h 59.5 km/h 70 % 0 mm 0.0 W/m2 CLR
19:38 -9.8 °C -12.7 °C 34808.1 hPa NW 71.5 km/h 71.5 km/h 70 % 0 mm 0.0 W/m2 CLR
19:43 -9.8 °C -12.7 °C 34808.1 hPa NW 62.6 km/h 62.6 km/h 70 % 0 mm 0.0 W/m2 CLR
19:48 -9.8 °C -12.7 °C 34808.1 hPa WNW 68.6 km/h 68.6 km/h 71 % 0 mm 0.0 W/m2 CLR
19:53 -9.8 °C -12.7 °C 34808.1 hPa NNW 57 km/h 57 km/h 70 % 0 mm 0.0 W/m2 CLR
19:58 -9.8 °C -12.7 °C 34808.1 hPa NW 71.5 km/h 71.5 km/h 71 % 0 mm 0.0 W/m2 CLR
20:03 -10.1 °C -12.9 °C 34808.1 hPa NW 50.7 km/h 50.7 km/h 71 % 0 mm 0.0 W/m2 CLR
20:08 -10.1 °C -12.9 °C 34818.2 hPa NW 68.6 km/h 68.6 km/h 71 % 0 mm 0.0 W/m2 CLR
20:13 -10.1 °C -12.9 °C 34818.2 hPa NW 50.7 km/h 50.7 km/h 71 % 0 mm 0.0 W/m2 CLR
20:18 -10.1 °C -12.9 °C 34831.8 hPa NW 41.7 km/h 41.7 km/h 71 % 0 mm 0.0 W/m2 CLR
20:23 -10.1 °C -12.9 °C 34818.2 hPa NW 59.5 km/h 59.5 km/h 71 % 0 mm 0.0 W/m2 CLR
20:28 -10.1 °C -12.9 °C 34818.2 hPa NNW 68.6 km/h 68.6 km/h 71 % 0 mm 0.0 W/m2 CLR
20:33 -10.1 °C -12.9 °C 34818.2 hPa NW 56.6 km/h 56.6 km/h 71 % 0 mm 0.0 W/m2 CLR
20:38 -10.1 °C -12.9 °C 34818.2 hPa NW 59.5 km/h 59.5 km/h 71 % 0 mm 0.0 W/m2 CLR
20:43 -10.1 °C -12.9 °C 34831.8 hPa NNW 68.6 km/h 68.6 km/h 71 % 0 mm 0.0 W/m2 CLR
20:48 -10.1 °C -12.9 °C 34818.2 hPa NW 68.6 km/h 68.6 km/h 71 % 0 mm 0.0 W/m2 CLR
20:50 -10.1 °C -12.8 °C 34818.2 hPa NW 68.6 km/h 68.6 km/h 72 % 0 mm 0.0 W/m2 CLR
20:55 -10.1 °C -12.8 °C 34831.8 hPa NW 68.6 km/h 68.6 km/h 72 % 0 mm 0.0 W/m2 CLR
21:00 -10.1 °C -12.8 °C 34831.8 hPa NW 65.5 km/h 65.5 km/h 72 % 0 mm 0.0 W/m2 CLR
21:05 -10.1 °C -12.7 °C 34831.8 hPa NW 62.6 km/h 62.6 km/h 73 % 0 mm 0.0 W/m2 CLR
21:10 -10.1 °C -12.7 °C 34831.8 hPa NW 68.6 km/h 68.6 km/h 73 % 0 mm 0.0 W/m2 CLR
21:15 -10.1 °C -12.7 °C 34831.8 hPa WNW 56.6 km/h 56.6 km/h 73 % 0 mm 0.0 W/m2 CLR
21:20 -10.1 °C -12.7 °C 34831.8 hPa WNW 54.4 km/h 54.4 km/h 73 % 0 mm 0.0 W/m2 CLR
21:25 -10.1 °C -12.7 °C 34831.8 hPa WNW 68.6 km/h 68.6 km/h 73 % 0 mm 0.0 W/m2 CLR
21:30 -10.1 °C -12.6 °C 34831.8 hPa NW 62.1 km/h 62.1 km/h 74 % 0 mm 0.0 W/m2 CLR
21:35 -10.1 °C -12.7 °C 34831.8 hPa NW 59.5 km/h 59.5 km/h 73 % 0 mm 0.0 W/m2 CLR
21:40 -10.1 °C -12.6 °C 34831.8 hPa WNW 62.6 km/h 62.6 km/h 74 % 0 mm 0.0 W/m2 CLR
21:45 -10.1 °C -12.7 °C 34831.8 hPa NW 59.5 km/h 59.5 km/h 73 % 0 mm 0.0 W/m2 CLR
21:50 -10.1 °C -12.6 °C 34818.2 hPa WNW 68.6 km/h 68.6 km/h 74 % 0 mm 0.0 W/m2 CLR
21:55 -10.1 °C -12.6 °C 34831.8 hPa WNW 62.6 km/h 62.6 km/h 74 % 0 mm 0.0 W/m2 CLR
22:00 -10.1 °C -12.7 °C 34831.8 hPa NW 59.5 km/h 59.5 km/h 73 % 0 mm 0.0 W/m2 CLR
22:05 -10.1 °C -12.7 °C 34831.8 hPa WNW 68.6 km/h 68.6 km/h 73 % 0 mm 0.0 W/m2 CLR
22:10 -10.1 °C -12.6 °C 34831.8 hPa NW 59.5 km/h 59.5 km/h 74 % 0 mm 0.0 W/m2 CLR
22:15 -10.1 °C -12.6 °C 34831.8 hPa WNW 59.5 km/h 59.5 km/h 74 % 0 mm 0.0 W/m2 CLR
22:20 -10.4 °C -12.9 °C 34831.8 hPa NW 53.6 km/h 53.6 km/h 74 % 0 mm 0.0 W/m2 CLR
22:25 -10.1 °C -12.6 °C 34831.8 hPa WNW 59.5 km/h 59.5 km/h 74 % 0 mm 0.0 W/m2 CLR
22:30 -10.1 °C -12.6 °C 34831.8 hPa NW 47.6 km/h 47.6 km/h 74 % 0 mm 0.0 W/m2 CLR
22:35 -10.4 °C -12.9 °C 34841.9 hPa NW 47.6 km/h 47.6 km/h 74 % 0 mm 0.0 W/m2 CLR
22:50 -10.1 °C -12.7 °C 34841.9 hPa WNW 62.6 km/h 62.6 km/h 73 % 0 mm 0.0 W/m2 CLR
22:55 -10.1 °C -12.6 °C 34841.9 hPa NW 59.5 km/h 59.5 km/h 74 % 0 mm 0.0 W/m2 CLR
23:00 -10.1 °C -12.6 °C 34831.8 hPa NNW 59.5 km/h 59.5 km/h 74 % 0 mm 0.0 W/m2 CLR
23:05 -10.4 °C -12.9 °C 34831.8 hPa NW 56.6 km/h 56.6 km/h 74 % 0 mm 0.0 W/m2 CLR
23:10 -10.4 °C -12.8 °C 34831.8 hPa NW 47.6 km/h 47.6 km/h 75 % 0 mm 0.0 W/m2 CLR
23:15 -10.4 °C -12.8 °C 34831.8 hPa NW 62.6 km/h 62.6 km/h 75 % 0 mm 0.0 W/m2 CLR
23:20 -10.4 °C -12.8 °C 34831.8 hPa NW 50.7 km/h 50.7 km/h 75 % 0 mm 0.0 W/m2 CLR
23:25 -10.4 °C -12.8 °C 34831.8 hPa NNW 53.6 km/h 53.6 km/h 75 % 0 mm 0.0 W/m2 CLR
23:30 -10.4 °C -12.8 °C 34831.8 hPa NW 47.6 km/h 47.6 km/h 75 % 0 mm 0.0 W/m2 CLR
23:35 -10.4 °C -12.8 °C 34831.8 hPa WNW 47.6 km/h 47.6 km/h 75 % 0 mm 0.0 W/m2 CLR
23:40 -10.4 °C -12.9 °C 34831.8 hPa NW 38.8 km/h 38.8 km/h 74 % 0 mm 0.0 W/m2 CLR
23:45 -10.4 °C -13 °C 34841.9 hPa NW 47.6 km/h 47.6 km/h 73 % 0 mm 0.0 W/m2 CLR
23:50 -10.1 °C -12.8 °C 34841.9 hPa WNW 38.8 km/h 38.8 km/h 72 % 0 mm 0.0 W/m2 CLR
23:55 -10.4 °C -13.1 °C 34841.9 hPa WNW 53.6 km/h 53.6 km/h 72 % 0 mm 0.0 W/m2 CLR
Lo Temps de Massalio
Compliments of Weather Underground - 1.25 mb